RYR13A LEGR-LEBL
Flight info
| Callsign | RYR13A |
|---|---|
| Flight time | 1h 8m |
| Altitude | 31000 |
| Route | VIBAS N865 AMR/N0459F320 N860 VLC L34 CASIM DCT MATEX |
| Aircraft | B38M/M-SDE1FGHILORVWXY/HB1 |
Departure
| Time | 2026-04-10 21:14 |
|---|---|
| Airport | F.G.L. Airport Granada-Jaén Airport (LEGR) |
Arrival
| Time | 2026-04-10 22:22 |
|---|---|
| Airport | Josep Tarradellas Barcelona-El Prat Airport (LEBL) |
| Time | Latitude | Longitude | Altitude | Speed | Heading |
|---|---|---|---|---|---|
| 2026-04-10 21:03 | 37.18568 | -3.77550 | 1873 ft | 0 kts | 270° |
| 2026-04-10 21:10 | 37.18568 | -3.77553 | 1873 ft | 1 kts | 270° |
| 2026-04-10 21:10 | 37.18569 | -3.77586 | 1873 ft | 6 kts | 279° |
| 2026-04-10 21:10 | 37.18621 | -3.77618 | 1871 ft | 13 kts | 0° |
| 2026-04-10 21:10 | 37.18701 | -3.77639 | 1866 ft | 11 kts | 306° |
| 2026-04-10 21:11 | 37.18708 | -3.77736 | 1866 ft | 12 kts | 269° |
| 2026-04-10 21:11 | 37.18707 | -3.77845 | 1870 ft | 14 kts | 269° |
| 2026-04-10 21:11 | 37.18706 | -3.78001 | 1869 ft | 22 kts | 269° |
| 2026-04-10 21:11 | 37.18704 | -3.78235 | 1868 ft | 31 kts | 269° |
| 2026-04-10 21:12 | 37.18702 | -3.78531 | 1871 ft | 38 kts | 269° |
| 2026-04-10 21:12 | 37.18700 | -3.78837 | 1873 ft | 40 kts | 269° |
| 2026-04-10 21:12 | 37.18697 | -3.79193 | 1869 ft | 41 kts | 270° |
| 2026-04-10 21:12 | 37.18714 | -3.79387 | 1867 ft | 15 kts | 318° |
| 2026-04-10 21:13 | 37.18810 | -3.79359 | 1863 ft | 17 kts | 33° |
| 2026-04-10 21:13 | 37.18862 | -3.79282 | 1866 ft | 11 kts | 81° |
| 2026-04-10 21:13 | 37.18864 | -3.79195 | 1871 ft | 11 kts | 89° |
| 2026-04-10 21:13 | 37.18866 | -3.78865 | 1873 ft | 79 kts | 89° |
| 2026-04-10 21:14 | 37.18874 | -3.77827 | 1866 ft | 157 kts | 89° |
| 2026-04-10 21:14 | 37.18887 | -3.76250 | 2185 ft | 193 kts | 90° |
| 2026-04-10 21:14 | 37.18894 | -3.74580 | 3143 ft | 189 kts | 89° |
| 2026-04-10 21:15 | 37.18939 | -3.71153 | 4281 ft | 205 kts | 89° |
| 2026-04-10 21:15 | 37.18992 | -3.69380 | 4754 ft | 204 kts | 83° |
| 2026-04-10 21:15 | 37.19422 | -3.67689 | 5208 ft | 204 kts | 62° |
| 2026-04-10 21:15 | 37.20352 | -3.66347 | 5654 ft | 205 kts | 38° |
| 2026-04-10 21:16 | 37.21576 | -3.65415 | 6137 ft | 206 kts | 32° |
| 2026-04-10 21:16 | 37.22820 | -3.64495 | 6617 ft | 207 kts | 34° |
| 2026-04-10 21:16 | 37.24138 | -3.63764 | 7035 ft | 213 kts | 12° |
| 2026-04-10 21:16 | 37.25702 | -3.63605 | 7321 ft | 237 kts | 5° |
| 2026-04-10 21:17 | 37.27358 | -3.63514 | 7627 ft | 256 kts | 5° |
| 2026-04-10 21:17 | 37.29132 | -3.63433 | 7913 ft | 272 kts | 4° |
| 2026-04-10 21:17 | 37.30911 | -3.63361 | 8340 ft | 282 kts | 5° |
| 2026-04-10 21:17 | 37.32928 | -3.63288 | 8634 ft | 297 kts | 5° |
| 2026-04-10 21:18 | 37.35023 | -3.63219 | 9222 ft | 299 kts | 5° |
| 2026-04-10 21:18 | 37.37115 | -3.63103 | 9765 ft | 301 kts | 13° |
| 2026-04-10 21:18 | 37.39036 | -3.62194 | 10217 ft | 295 kts | 38° |
| 2026-04-10 21:18 | 37.40516 | -3.60388 | 10353 ft | 303 kts | 59° |
| 2026-04-10 21:19 | 37.41718 | -3.58134 | 10378 ft | 318 kts | 60° |
| 2026-04-10 21:19 | 37.42973 | -3.55769 | 10387 ft | 332 kts | 60° |
| 2026-04-10 21:19 | 37.44278 | -3.53311 | 10374 ft | 343 kts | 60° |
| 2026-04-10 21:19 | 37.45606 | -3.50812 | 10653 ft | 343 kts | 60° |
| 2026-04-10 21:20 | 37.46933 | -3.48307 | 10851 ft | 345 kts | 60° |
| 2026-04-10 21:20 | 37.48265 | -3.45795 | 11089 ft | 345 kts | 60° |
| 2026-04-10 21:20 | 37.49604 | -3.43269 | 11262 ft | 348 kts | 61° |
| 2026-04-10 21:20 | 37.50930 | -3.40761 | 11388 ft | 353 kts | 61° |
| 2026-04-10 21:21 | 37.52203 | -3.38354 | 11582 ft | 354 kts | 62° |
| 2026-04-10 21:21 | 37.53569 | -3.35773 | 11830 ft | 355 kts | 61° |
| 2026-04-10 21:21 | 37.54938 | -3.33180 | 12017 ft | 356 kts | 61° |
| 2026-04-10 21:21 | 37.56313 | -3.30574 | 12193 ft | 358 kts | 61° |
| 2026-04-10 21:22 | 37.57694 | -3.27954 | 12405 ft | 359 kts | 61° |
| 2026-04-10 21:22 | 37.59079 | -3.25326 | 12569 ft | 361 kts | 61° |
| 2026-04-10 21:22 | 37.60400 | -3.22815 | 12795 ft | 361 kts | 61° |
| 2026-04-10 21:22 | 37.61770 | -3.20213 | 13418 ft | 351 kts | 62° |
| 2026-04-10 21:23 | 37.63115 | -3.17654 | 14097 ft | 346 kts | 62° |
| 2026-04-10 21:23 | 37.64431 | -3.15147 | 14749 ft | 342 kts | 62° |
| 2026-04-10 21:23 | 37.65739 | -3.12656 | 15427 ft | 336 kts | 63° |
| 2026-04-10 21:23 | 37.67017 | -3.10220 | 16124 ft | 330 kts | 63° |
| 2026-04-10 21:24 | 37.68272 | -3.07824 | 16817 ft | 324 kts | 63° |
| 2026-04-10 21:24 | 37.69503 | -3.05476 | 17546 ft | 316 kts | 64° |
| 2026-04-10 21:24 | 37.70700 | -3.03190 | 18256 ft | 306 kts | 63° |
| 2026-04-10 21:24 | 37.71859 | -3.00973 | 18930 ft | 297 kts | 63° |
| 2026-04-10 21:25 | 37.72973 | -2.98843 | 19627 ft | 285 kts | 64° |
| 2026-04-10 21:25 | 37.74043 | -2.96795 | 20313 ft | 274 kts | 65° |
| 2026-04-10 21:25 | 37.75082 | -2.94800 | 20732 ft | 275 kts | 65° |
| 2026-04-10 21:25 | 37.76169 | -2.92710 | 20758 ft | 290 kts | 64° |
| 2026-04-10 21:26 | 37.77303 | -2.90534 | 20787 ft | 303 kts | 64° |
| 2026-04-10 21:26 | 37.78488 | -2.88261 | 20815 ft | 316 kts | 64° |
| 2026-04-10 21:26 | 37.79712 | -2.85910 | 20835 ft | 327 kts | 64° |
| 2026-04-10 21:26 | 37.80982 | -2.83469 | 20852 ft | 339 kts | 63° |
| 2026-04-10 21:27 | 37.82298 | -2.80940 | 20881 ft | 348 kts | 63° |
| 2026-04-10 21:27 | 37.83643 | -2.78351 | 20905 ft | 357 kts | 63° |
| 2026-04-10 21:27 | 37.85020 | -2.75698 | 20907 ft | 364 kts | 63° |
| 2026-04-10 21:27 | 37.86421 | -2.72997 | 20950 ft | 370 kts | 63° |
| 2026-04-10 21:28 | 37.87835 | -2.70268 | 20970 ft | 375 kts | 63° |
| 2026-04-10 21:28 | 37.89276 | -2.67484 | 20971 ft | 379 kts | 63° |
| 2026-04-10 21:28 | 37.90730 | -2.64674 | 20958 ft | 383 kts | 63° |
| 2026-04-10 21:28 | 37.92196 | -2.61837 | 20986 ft | 387 kts | 63° |
| 2026-04-10 21:29 | 37.93673 | -2.58979 | 20996 ft | 390 kts | 62° |
| 2026-04-10 21:29 | 37.95159 | -2.56097 | 21002 ft | 392 kts | 62° |
| 2026-04-10 21:29 | 37.96659 | -2.53189 | 20980 ft | 394 kts | 62° |
| 2026-04-10 21:29 | 37.98161 | -2.50271 | 20974 ft | 396 kts | 62° |
| 2026-04-10 21:30 | 37.99670 | -2.47340 | 20994 ft | 398 kts | 62° |
| 2026-04-10 21:30 | 38.01185 | -2.44392 | 21001 ft | 400 kts | 62° |
| 2026-04-10 21:30 | 38.02707 | -2.41430 | 21002 ft | 401 kts | 62° |
| 2026-04-10 21:30 | 38.04229 | -2.38463 | 21010 ft | 402 kts | 62° |
| 2026-04-10 21:31 | 38.05755 | -2.35488 | 21025 ft | 403 kts | 62° |
| 2026-04-10 21:31 | 38.07286 | -2.32499 | 20989 ft | 404 kts | 62° |
| 2026-04-10 21:31 | 38.08819 | -2.29502 | 21005 ft | 404 kts | 62° |
| 2026-04-10 21:31 | 38.10351 | -2.26508 | 21001 ft | 405 kts | 62° |
| 2026-04-10 21:32 | 38.11884 | -2.23506 | 21001 ft | 406 kts | 62° |
| 2026-04-10 21:32 | 38.13421 | -2.20494 | 20995 ft | 406 kts | 63° |
| 2026-04-10 21:32 | 38.14956 | -2.17484 | 20999 ft | 406 kts | 62° |
| 2026-04-10 21:32 | 38.16494 | -2.14465 | 20978 ft | 407 kts | 62° |
| 2026-04-10 21:33 | 38.18030 | -2.11446 | 20949 ft | 406 kts | 62° |
| 2026-04-10 21:33 | 38.19560 | -2.08439 | 20953 ft | 406 kts | 62° |
| 2026-04-10 21:33 | 38.21095 | -2.05418 | 20982 ft | 406 kts | 62° |
| 2026-04-10 21:33 | 38.22629 | -2.02394 | 20968 ft | 407 kts | 62° |
| 2026-04-10 21:34 | 38.24162 | -1.99372 | 20956 ft | 407 kts | 62° |
| 2026-04-10 21:34 | 38.25687 | -1.96364 | 21209 ft | 398 kts | 62° |
| 2026-04-10 21:34 | 38.27145 | -1.93484 | 21973 ft | 377 kts | 62° |
| 2026-04-10 21:34 | 38.28533 | -1.90741 | 22703 ft | 359 kts | 62° |
| 2026-04-10 21:35 | 38.29849 | -1.88137 | 23468 ft | 342 kts | 62° |
| 2026-04-10 21:35 | 38.31105 | -1.85647 | 24123 ft | 326 kts | 63° |
| 2026-04-10 21:35 | 38.32299 | -1.83283 | 24759 ft | 308 kts | 63° |
| 2026-04-10 21:35 | 38.33426 | -1.81048 | 25392 ft | 291 kts | 64° |
| 2026-04-10 21:36 | 38.34156 | -1.79597 | 25661 ft | 286 kts | 64° |
| 2026-04-10 21:36 | 38.35241 | -1.77439 | 25707 ft | 294 kts | 64° |
| 2026-04-10 21:36 | 38.36359 | -1.75216 | 25692 ft | 301 kts | 64° |
| 2026-04-10 21:36 | 38.37503 | -1.72943 | 25701 ft | 309 kts | 63° |
| 2026-04-10 21:37 | 38.38677 | -1.70605 | 25714 ft | 316 kts | 63° |
| 2026-04-10 21:37 | 38.39873 | -1.68223 | 25717 ft | 323 kts | 63° |
| 2026-04-10 21:37 | 38.41096 | -1.65786 | 25726 ft | 328 kts | 63° |
| 2026-04-10 21:37 | 38.42341 | -1.63306 | 25718 ft | 335 kts | 63° |
| 2026-04-10 21:38 | 38.43604 | -1.60784 | 25740 ft | 340 kts | 63° |
| 2026-04-10 21:38 | 38.44886 | -1.58224 | 25753 ft | 345 kts | 63° |
| 2026-04-10 21:38 | 38.46185 | -1.55627 | 25778 ft | 349 kts | 63° |
| 2026-04-10 21:38 | 38.47501 | -1.52996 | 25802 ft | 355 kts | 63° |
| 2026-04-10 21:39 | 38.48859 | -1.50272 | 25813 ft | 372 kts | 62° |
| 2026-04-10 21:39 | 38.50275 | -1.47438 | 25858 ft | 388 kts | 61° |
| 2026-04-10 21:39 | 38.51754 | -1.44472 | 25893 ft | 404 kts | 61° |
| 2026-04-10 21:39 | 38.53296 | -1.41377 | 25931 ft | 419 kts | 61° |
| 2026-04-10 21:40 | 38.54888 | -1.38177 | 25965 ft | 435 kts | 61° |
| 2026-04-10 21:40 | 38.56534 | -1.34866 | 26039 ft | 448 kts | 61° |
| 2026-04-10 21:40 | 38.58214 | -1.31484 | 26419 ft | 451 kts | 61° |
| 2026-04-10 21:40 | 38.59901 | -1.28082 | 26880 ft | 455 kts | 61° |
| 2026-04-10 21:41 | 38.61602 | -1.24650 | 27302 ft | 458 kts | 61° |
| 2026-04-10 21:41 | 38.63311 | -1.21198 | 27723 ft | 461 kts | 61° |
| 2026-04-10 21:41 | 38.65033 | -1.17717 | 28113 ft | 464 kts | 61° |
| 2026-04-10 21:41 | 38.66763 | -1.14214 | 28521 ft | 467 kts | 60° |
| 2026-04-10 21:42 | 38.68504 | -1.10687 | 28938 ft | 469 kts | 60° |
| 2026-04-10 21:42 | 38.70249 | -1.07145 | 29352 ft | 472 kts | 60° |
| 2026-04-10 21:42 | 38.72007 | -1.03593 | 29758 ft | 475 kts | 58° |
| 2026-04-10 21:42 | 38.74167 | -1.00363 | 30159 ft | 481 kts | 43° |
| 2026-04-10 21:43 | 38.76918 | -0.97884 | 30506 ft | 486 kts | 29° |
| 2026-04-10 21:43 | 38.79937 | -0.95871 | 30793 ft | 489 kts | 29° |
| 2026-04-10 21:43 | 38.82942 | -0.93801 | 31097 ft | 492 kts | 29° |
| 2026-04-10 21:43 | 38.85967 | -0.91712 | 31452 ft | 494 kts | 29° |
| 2026-04-10 21:44 | 38.88994 | -0.89620 | 31860 ft | 494 kts | 29° |
| 2026-04-10 21:44 | 38.92015 | -0.87528 | 32059 ft | 492 kts | 30° |
| 2026-04-10 21:44 | 38.98006 | -0.83376 | 32056 ft | 487 kts | 30° |
| 2026-04-10 21:45 | 39.03973 | -0.79231 | 32050 ft | 487 kts | 30° |
| 2026-04-10 21:45 | 39.09944 | -0.75107 | 32032 ft | 487 kts | 30° |
| 2026-04-10 21:46 | 39.15943 | -0.70967 | 32046 ft | 490 kts | 30° |
| 2026-04-10 21:46 | 39.21955 | -0.66808 | 32051 ft | 490 kts | 30° |
| 2026-04-10 21:47 | 39.27963 | -0.62645 | 32051 ft | 490 kts | 30° |
| 2026-04-10 21:47 | 39.33958 | -0.58482 | 32038 ft | 490 kts | 30° |
| 2026-04-10 21:48 | 39.39971 | -0.54299 | 32046 ft | 491 kts | 30° |
| 2026-04-10 21:48 | 39.45977 | -0.50112 | 32049 ft | 491 kts | 30° |
| 2026-04-10 21:49 | 39.51786 | -0.45491 | 32071 ft | 489 kts | 36° |
| 2026-04-10 21:49 | 39.57510 | -0.40698 | 32046 ft | 489 kts | 35° |
| 2026-04-10 21:50 | 39.63222 | -0.35954 | 32051 ft | 484 kts | 35° |
| 2026-04-10 21:50 | 39.68892 | -0.31239 | 32053 ft | 484 kts | 35° |
| 2026-04-10 21:51 | 39.74572 | -0.26506 | 32038 ft | 484 kts | 35° |
| 2026-04-10 21:51 | 39.80236 | -0.21778 | 32029 ft | 484 kts | 35° |
| 2026-04-10 21:52 | 39.85887 | -0.17051 | 32040 ft | 481 kts | 35° |
| 2026-04-10 21:52 | 39.91516 | -0.12333 | 32024 ft | 481 kts | 35° |
| 2026-04-10 21:53 | 39.97142 | -0.07608 | 32044 ft | 481 kts | 35° |
| 2026-04-10 21:53 | 40.02767 | -0.02876 | 32043 ft | 481 kts | 35° |
| 2026-04-10 21:54 | 40.08386 | 0.01862 | 32056 ft | 482 kts | 34° |
| 2026-04-10 21:54 | 40.14029 | 0.06629 | 32078 ft | 483 kts | 34° |
| 2026-04-10 21:55 | 40.19663 | 0.11397 | 32071 ft | 482 kts | 34° |
| 2026-04-10 21:55 | 40.25684 | 0.15196 | 32083 ft | 484 kts | 15° |
| 2026-04-10 21:56 | 40.32152 | 0.17678 | 32075 ft | 484 kts | 17° |
| 2026-04-10 21:56 | 40.38631 | 0.20131 | 32065 ft | 484 kts | 17° |
| 2026-04-10 21:57 | 40.45044 | 0.22545 | 32061 ft | 474 kts | 17° |
| 2026-04-10 21:57 | 40.51266 | 0.25315 | 32030 ft | 473 kts | 31° |
| 2026-04-10 21:58 | 40.53950 | 0.27811 | 32049 ft | 474 kts | 44° |
| 2026-04-10 21:58 | 40.56160 | 0.31010 | 32034 ft | 475 kts | 54° |
| 2026-04-10 21:58 | 40.57959 | 0.34651 | 32015 ft | 473 kts | 67° |
| 2026-04-10 21:58 | 40.59043 | 0.38691 | 32023 ft | 468 kts | 77° |
| 2026-04-10 21:59 | 40.60904 | 0.46952 | 32033 ft | 472 kts | 76° |
| 2026-04-10 21:59 | 40.62795 | 0.55225 | 32027 ft | 472 kts | 76° |
| 2026-04-10 22:00 | 40.64679 | 0.63505 | 32025 ft | 472 kts | 76° |
| 2026-04-10 22:00 | 40.66561 | 0.71806 | 32028 ft | 472 kts | 76° |
| 2026-04-10 22:01 | 40.68434 | 0.80099 | 32020 ft | 473 kts | 76° |
| 2026-04-10 22:01 | 40.70307 | 0.88422 | 32026 ft | 474 kts | 76° |
| 2026-04-10 22:02 | 40.72146 | 0.96626 | 32012 ft | 458 kts | 76° |
| 2026-04-10 22:02 | 40.73016 | 1.00515 | 32036 ft | 430 kts | 76° |
| 2026-04-10 22:02 | 40.73933 | 1.04149 | 32043 ft | 407 kts | 66° |
| 2026-04-10 22:03 | 40.75418 | 1.07246 | 31831 ft | 395 kts | 51° |
| 2026-04-10 22:03 | 40.77267 | 1.09873 | 31356 ft | 389 kts | 49° |
| 2026-04-10 22:03 | 40.79124 | 1.12445 | 30803 ft | 385 kts | 48° |
| 2026-04-10 22:03 | 40.80968 | 1.14956 | 30184 ft | 381 kts | 47° |
| 2026-04-10 22:04 | 40.82832 | 1.17467 | 29451 ft | 380 kts | 47° |
| 2026-04-10 22:04 | 40.84709 | 1.19980 | 28702 ft | 378 kts | 46° |
| 2026-04-10 22:04 | 40.86428 | 1.22276 | 28035 ft | 377 kts | 46° |
| 2026-04-10 22:04 | 40.88269 | 1.24736 | 27332 ft | 376 kts | 46° |
| 2026-04-10 22:05 | 40.90120 | 1.27208 | 26649 ft | 375 kts | 46° |
| 2026-04-10 22:05 | 40.91928 | 1.29625 | 25989 ft | 373 kts | 46° |
| 2026-04-10 22:05 | 40.93755 | 1.32070 | 25330 ft | 372 kts | 46° |
| 2026-04-10 22:05 | 40.95597 | 1.34536 | 24686 ft | 371 kts | 46° |
| 2026-04-10 22:06 | 40.97384 | 1.36932 | 24066 ft | 369 kts | 46° |
| 2026-04-10 22:06 | 40.99209 | 1.39380 | 23406 ft | 368 kts | 46° |
| 2026-04-10 22:06 | 41.00975 | 1.41750 | 22696 ft | 366 kts | 46° |
| 2026-04-10 22:06 | 41.02756 | 1.44143 | 21988 ft | 365 kts | 45° |
| 2026-04-10 22:07 | 41.04561 | 1.46570 | 21284 ft | 363 kts | 45° |
| 2026-04-10 22:07 | 41.06331 | 1.48951 | 20607 ft | 361 kts | 45° |
| 2026-04-10 22:07 | 41.07496 | 1.50520 | 20163 ft | 360 kts | 45° |
| 2026-04-10 22:08 | 41.10989 | 1.55228 | 18878 ft | 356 kts | 44° |
| 2026-04-10 22:08 | 41.12612 | 1.57697 | 18222 ft | 355 kts | 57° |
| 2026-04-10 22:08 | 41.13583 | 1.60684 | 17502 ft | 354 kts | 78° |
| 2026-04-10 22:08 | 41.13742 | 1.63915 | 16792 ft | 350 kts | 96° |
| 2026-04-10 22:09 | 41.13502 | 1.67118 | 16104 ft | 349 kts | 96° |
| 2026-04-10 22:09 | 41.13257 | 1.70316 | 15431 ft | 347 kts | 96° |
| 2026-04-10 22:09 | 41.13304 | 1.73496 | 14762 ft | 345 kts | 77° |
| 2026-04-10 22:09 | 41.14187 | 1.76408 | 14123 ft | 340 kts | 54° |
| 2026-04-10 22:10 | 41.15768 | 1.78603 | 13560 ft | 330 kts | 31° |
| 2026-04-10 22:10 | 41.17778 | 1.79979 | 13081 ft | 318 kts | 20° |
| 2026-04-10 22:10 | 41.19790 | 1.81107 | 12622 ft | 310 kts | 20° |
| 2026-04-10 22:10 | 41.21543 | 1.82087 | 12289 ft | 302 kts | 20° |
| 2026-04-10 22:11 | 41.23478 | 1.83176 | 11919 ft | 292 kts | 20° |
| 2026-04-10 22:11 | 41.25257 | 1.84404 | 11556 ft | 288 kts | 36° |
| 2026-04-10 22:11 | 41.26518 | 1.86431 | 11185 ft | 287 kts | 62° |
| 2026-04-10 22:11 | 41.26982 | 1.88661 | 10873 ft | 287 kts | 86° |
| 2026-04-10 22:12 | 41.26816 | 1.90744 | 10581 ft | 287 kts | 108° |
| 2026-04-10 22:12 | 41.25861 | 1.93042 | 10192 ft | 286 kts | 135° |
| 2026-04-10 22:12 | 41.24608 | 1.94335 | 9908 ft | 283 kts | 157° |
| 2026-04-10 22:12 | 41.22752 | 1.94972 | 9525 ft | 273 kts | 184° |
| 2026-04-10 22:13 | 41.20918 | 1.94592 | 9176 ft | 267 kts | 199° |
| 2026-04-10 22:13 | 41.19116 | 1.93931 | 8829 ft | 267 kts | 200° |
| 2026-04-10 22:13 | 41.17353 | 1.93262 | 8479 ft | 263 kts | 200° |
| 2026-04-10 22:13 | 41.15621 | 1.92600 | 8126 ft | 257 kts | 200° |
| 2026-04-10 22:14 | 41.13921 | 1.91944 | 7774 ft | 251 kts | 200° |
| 2026-04-10 22:14 | 41.12263 | 1.91302 | 7469 ft | 243 kts | 200° |
| 2026-04-10 22:14 | 41.10665 | 1.90668 | 7152 ft | 236 kts | 199° |
| 2026-04-10 22:14 | 41.09118 | 1.90027 | 6824 ft | 230 kts | 200° |
| 2026-04-10 22:15 | 41.07600 | 1.89422 | 6481 ft | 225 kts | 193° |
| 2026-04-10 22:15 | 41.06060 | 1.89559 | 6090 ft | 226 kts | 160° |
| 2026-04-10 22:15 | 41.04838 | 1.90741 | 5735 ft | 225 kts | 128° |
| 2026-04-10 22:15 | 41.04183 | 1.92420 | 5431 ft | 221 kts | 111° |
| 2026-04-10 22:16 | 41.03849 | 1.94220 | 5112 ft | 217 kts | 89° |
| 2026-04-10 22:16 | 41.04215 | 1.96089 | 4847 ft | 207 kts | 56° |
| 2026-04-10 22:16 | 41.05198 | 1.97335 | 4621 ft | 193 kts | 27° |
| 2026-04-10 22:16 | 41.06310 | 1.98039 | 4468 ft | 190 kts | 21° |
| 2026-04-10 22:17 | 41.07405 | 1.98640 | 4282 ft | 191 kts | 19° |
| 2026-04-10 22:17 | 41.08649 | 1.99268 | 4047 ft | 190 kts | 18° |
| 2026-04-10 22:17 | 41.09893 | 1.99861 | 3804 ft | 190 kts | 17° |
| 2026-04-10 22:17 | 41.11149 | 2.00444 | 3574 ft | 191 kts | 18° |
| 2026-04-10 22:18 | 41.12401 | 2.01020 | 3337 ft | 188 kts | 17° |
| 2026-04-10 22:18 | 41.13580 | 2.01560 | 3130 ft | 171 kts | 17° |
| 2026-04-10 22:18 | 41.14690 | 2.02066 | 2906 ft | 167 kts | 16° |
| 2026-04-10 22:18 | 41.15785 | 2.02564 | 2686 ft | 166 kts | 16° |
| 2026-04-10 22:19 | 41.16878 | 2.03061 | 2473 ft | 166 kts | 16° |
| 2026-04-10 22:19 | 41.17969 | 2.03559 | 2243 ft | 165 kts | 16° |
| 2026-04-10 22:19 | 41.19043 | 2.04048 | 2037 ft | 165 kts | 16° |
| 2026-04-10 22:19 | 41.20034 | 2.04499 | 1832 ft | 164 kts | 16° |
| 2026-04-10 22:20 | 41.21118 | 2.04998 | 1592 ft | 168 kts | 16° |
| 2026-04-10 22:20 | 41.22227 | 2.05512 | 1356 ft | 169 kts | 15° |
| 2026-04-10 22:20 | 41.23320 | 2.05999 | 1121 ft | 163 kts | 14° |
| 2026-04-10 22:20 | 41.24375 | 2.06476 | 908 ft | 157 kts | 17° |
| 2026-04-10 22:21 | 41.25399 | 2.06926 | 722 ft | 153 kts | 17° |
| 2026-04-10 22:21 | 41.26400 | 2.07389 | 523 ft | 153 kts | 18° |
| 2026-04-10 22:21 | 41.27416 | 2.07855 | 349 ft | 157 kts | 18° |
| 2026-04-10 22:21 | 41.28455 | 2.08332 | 139 ft | 156 kts | 19° |
| 2026-04-10 22:22 | 41.29443 | 2.08785 | 24 ft | 137 kts | 18° |
| 2026-04-10 22:22 | 41.30114 | 2.09093 | 20 ft | 68 kts | 19° |
| 2026-04-10 22:22 | 41.30434 | 2.09239 | 23 ft | 49 kts | 19° |
| 2026-04-10 22:22 | 41.30611 | 2.09243 | 22 ft | 23 kts | 321° |
| 2026-04-10 22:23 | 41.30683 | 2.09132 | 21 ft | 11 kts | 269° |
| 2026-04-10 22:23 | 41.30633 | 2.09065 | 21 ft | 12 kts | 200° |
| 2026-04-10 22:23 | 41.30545 | 2.09025 | 20 ft | 15 kts | 199° |
| 2026-04-10 22:23 | 41.30456 | 2.08984 | 20 ft | 18 kts | 199° |
| 2026-04-10 22:24 | 41.30392 | 2.08903 | 20 ft | 13 kts | 246° |
| 2026-04-10 22:24 | 41.30348 | 2.08777 | 20 ft | 17 kts | 245° |
| 2026-04-10 22:24 | 41.30296 | 2.08624 | 21 ft | 19 kts | 245° |
| 2026-04-10 22:24 | 41.30244 | 2.08472 | 19 ft | 16 kts | 246° |
| 2026-04-10 22:25 | 41.30194 | 2.08327 | 21 ft | 18 kts | 245° |
| 2026-04-10 22:25 | 41.30162 | 2.08213 | 19 ft | 7 kts | 283° |
| 2026-04-10 22:25 | 41.30192 | 2.08158 | 21 ft | 7 kts | 288° |
| 2026-04-10 22:25 | 41.30177 | 2.08086 | 22 ft | 10 kts | 245° |
| 2026-04-10 22:26 | 41.30144 | 2.07989 | 20 ft | 13 kts | 245° |
| 2026-04-10 22:26 | 41.30129 | 2.07923 | 20 ft | 7 kts | 277° |
| 2026-04-10 22:26 | 41.30168 | 2.07890 | 21 ft | 7 kts | 358° |
| 2026-04-10 22:26 | 41.30212 | 2.07911 | 24 ft | 7 kts | 25° |
| 2026-04-10 22:27 | 41.30232 | 2.07924 | 25 ft | 1 kts | 25° |
| 2026-04-10 22:27 | 41.30235 | 2.07926 | 25 ft | 0 kts | 25° |